sensor_id;sensor_type;location;lat;lon;timestamp;pressure;altitude;pressure_sealevel;temperature;humidity
64704;BME280;51130;52.298;13.686;2022-07-10T00:00:02;77038.97;;;-141.89;64.68
64704;BME280;51130;52.298;13.686;2022-07-10T00:02:29;77042.97;;;-141.89;64.66
64704;BME280;51130;52.298;13.686;2022-07-10T00:04:56;77038.97;;;-141.89;64.68
64704;BME280;51130;52.298;13.686;2022-07-10T00:07:22;77040.97;;;-141.89;64.89
64704;BME280;51130;52.298;13.686;2022-07-10T00:09:48;77042.97;;;-141.89;64.77
64704;BME280;51130;52.298;13.686;2022-07-10T00:12:15;77049.00;;;-141.89;64.76
64704;BME280;51130;52.298;13.686;2022-07-10T00:14:41;77044.97;;;-141.89;64.60
64704;BME280;51130;52.298;13.686;2022-07-10T00:17:08;77044.97;;;-141.89;64.46
64704;BME280;51130;52.298;13.686;2022-07-10T00:19:34;77051.00;;;-141.89;64.50
64704;BME280;51130;52.298;13.686;2022-07-10T00:22:01;77042.97;;;-141.89;64.84
64704;BME280;51130;52.298;13.686;2022-07-10T00:24:27;77047.00;;;-141.89;64.57
64704;BME280;51130;52.298;13.686;2022-07-10T00:26:53;77042.97;;;-141.89;64.66
64704;BME280;51130;52.298;13.686;2022-07-10T00:29:20;77034.97;;;-141.89;64.58
64704;BME280;51130;52.298;13.686;2022-07-10T00:31:46;77044.97;;;-141.89;64.74
64704;BME280;51130;52.298;13.686;2022-07-10T00:34:13;77038.97;;;-141.89;64.69
64704;BME280;51130;52.298;13.686;2022-07-10T00:36:40;77034.97;;;-141.89;64.45
64704;BME280;51130;52.298;13.686;2022-07-10T00:39:06;77034.97;;;-141.89;64.63
64704;BME280;51130;52.298;13.686;2022-07-10T00:41:33;77028.97;;;-141.89;64.63
64704;BME280;51130;52.298;13.686;2022-07-10T00:43:59;77030.97;;;-141.89;64.43
64704;BME280;51130;52.298;13.686;2022-07-10T00:46:26;77030.97;;;-141.89;64.47
64704;BME280;51130;52.298;13.686;2022-07-10T00:48:53;77032.97;;;-141.89;64.43
64704;BME280;51130;52.298;13.686;2022-07-10T00:51:21;77034.97;;;-141.89;64.50
64704;BME280;51130;52.298;13.686;2022-07-10T00:53:48;77028.97;;;-141.89;64.42
64704;BME280;51130;52.298;13.686;2022-07-10T00:56:19;77034.97;;;-141.89;64.30
64704;BME280;51130;52.298;13.686;2022-07-10T00:58:46;77030.97;;;-141.89;64.35
64704;BME280;51130;52.298;13.686;2022-07-10T01:01:13;77030.97;;;-141.89;64.25
64704;BME280;51130;52.298;13.686;2022-07-10T01:03:40;77026.97;;;-141.89;64.42
64704;BME280;51130;52.298;13.686;2022-07-10T01:06:06;77028.97;;;-141.89;64.50
64704;BME280;51130;52.298;13.686;2022-07-10T01:08:33;77030.97;;;-141.89;64.36
64704;BME280;51130;52.298;13.686;2022-07-10T01:11:00;77030.97;;;-141.89;64.14
64704;BME280;51130;52.298;13.686;2022-07-10T01:13:26;77026.97;;;-141.89;64.27
64704;BME280;51130;52.298;13.686;2022-07-10T01:15:53;77022.97;;;-141.89;64.22
64704;BME280;51130;52.298;13.686;2022-07-10T01:18:20;77022.97;;;-141.89;64.38
64704;BME280;51130;52.298;13.686;2022-07-10T01:20:50;77020.97;;;-141.89;64.28
64704;BME280;51130;52.298;13.686;2022-07-10T01:23:16;77022.97;;;-141.89;64.38
64704;BME280;51130;52.298;13.686;2022-07-10T01:25:43;77018.97;;;-141.89;64.31
64704;BME280;51130;52.298;13.686;2022-07-10T01:28:09;77010.97;;;-141.89;64.28
64704;BME280;51130;52.298;13.686;2022-07-10T01:30:36;77014.97;;;-141.89;64.22
64704;BME280;51130;52.298;13.686;2022-07-10T01:33:03;77010.97;;;-141.89;64.15
64704;BME280;51130;52.298;13.686;2022-07-10T01:35:29;77006.94;;;-141.89;64.15
64704;BME280;51130;52.298;13.686;2022-07-10T01:37:56;77004.94;;;-141.89;64.10
64704;BME280;51130;52.298;13.686;2022-07-10T01:40:22;77008.97;;;-141.89;64.32
64704;BME280;51130;52.298;13.686;2022-07-10T01:42:49;77006.94;;;-141.89;64.13
64704;BME280;51130;52.298;13.686;2022-07-10T01:45:16;77006.94;;;-141.89;64.11
64704;BME280;51130;52.298;13.686;2022-07-10T01:47:42;77006.94;;;-141.89;64.33
64704;BME280;51130;52.298;13.686;2022-07-10T01:50:10;77002.94;;;-141.89;64.02
64704;BME280;51130;52.298;13.686;2022-07-10T01:52:36;77006.94;;;-141.89;63.88
64704;BME280;51130;52.298;13.686;2022-07-10T01:55:03;77002.94;;;-141.89;63.86
64704;BME280;51130;52.298;13.686;2022-07-10T01:57:30;77002.94;;;-141.89;64.08
64704;BME280;51130;52.298;13.686;2022-07-10T01:59:56;77006.94;;;-141.89;64.04
64704;BME280;51130;52.298;13.686;2022-07-10T02:02:23;76998.94;;;-141.89;63.86
64704;BME280;51130;52.298;13.686;2022-07-10T02:04:50;76998.94;;;-141.89;64.11
64704;BME280;51130;52.298;13.686;2022-07-10T02:07:17;76998.94;;;-141.89;64.09
64704;BME280;51130;52.298;13.686;2022-07-10T02:09:45;76998.94;;;-141.89;64.12
64704;BME280;51130;52.298;13.686;2022-07-10T02:12:12;77002.94;;;-141.89;64.08
64704;BME280;51130;52.298;13.686;2022-07-10T02:14:39;77002.94;;;-141.89;64.07
64704;BME280;51130;52.298;13.686;2022-07-10T02:17:07;77002.94;;;-141.89;63.99
64704;BME280;51130;52.298;13.686;2022-07-10T02:19:34;77006.94;;;-141.89;64.01
64704;BME280;51130;52.298;13.686;2022-07-10T02:22:00;77008.97;;;-141.89;63.92
64704;BME280;51130;52.298;13.686;2022-07-10T02:24:27;77008.97;;;-141.89;63.72
64704;BME280;51130;52.298;13.686;2022-07-10T02:26:53;77004.94;;;-141.89;64.04
64704;BME280;51130;52.298;13.686;2022-07-10T02:29:21;77006.94;;;-141.89;63.79
64704;BME280;51130;52.298;13.686;2022-07-10T02:31:49;77006.94;;;-141.89;63.79
64704;BME280;51130;52.298;13.686;2022-07-10T02:34:16;77002.94;;;-141.89;63.89
64704;BME280;51130;52.298;13.686;2022-07-10T02:36:42;77002.94;;;-141.89;63.81
64704;BME280;51130;52.298;13.686;2022-07-10T02:39:09;77002.94;;;-141.89;63.93
64704;BME280;51130;52.298;13.686;2022-07-10T02:41:35;77002.94;;;-141.89;63.74
64704;BME280;51130;52.298;13.686;2022-07-10T02:44:02;77002.94;;;-141.89;63.91
64704;BME280;51130;52.298;13.686;2022-07-10T02:46:29;76994.94;;;-141.89;63.85
64704;BME280;51130;52.298;13.686;2022-07-10T02:48:55;76994.94;;;-141.89;63.78
64704;BME280;51130;52.298;13.686;2022-07-10T02:51:22;76994.94;;;-141.89;63.90
64704;BME280;51130;52.298;13.686;2022-07-10T02:53:49;76996.94;;;-141.89;63.94
64704;BME280;51130;52.298;13.686;2022-07-10T02:56:15;76998.94;;;-141.89;63.86
64704;BME280;51130;52.298;13.686;2022-07-10T02:58:42;76998.94;;;-141.89;63.82
64704;BME280;51130;52.298;13.686;2022-07-10T03:01:08;76994.94;;;-141.89;63.73
64704;BME280;51130;52.298;13.686;2022-07-10T03:03:35;76998.94;;;-141.89;63.58
64704;BME280;51130;52.298;13.686;2022-07-10T03:06:01;76994.94;;;-141.89;63.71
64704;BME280;51130;52.298;13.686;2022-07-10T03:11:01;76996.94;;;-141.89;63.60
64704;BME280;51130;52.298;13.686;2022-07-10T03:13:27;76998.94;;;-141.89;63.76
64704;BME280;51130;52.298;13.686;2022-07-10T03:15:54;76994.94;;;-141.89;63.58
64704;BME280;51130;52.298;13.686;2022-07-10T03:18:21;76994.94;;;-141.89;63.71
64704;BME280;51130;52.298;13.686;2022-07-10T03:20:47;76996.94;;;-141.89;63.66
64704;BME280;51130;52.298;13.686;2022-07-10T03:23:14;76998.94;;;-141.89;63.60
64704;BME280;51130;52.298;13.686;2022-07-10T03:25:40;77006.94;;;-141.89;63.55
64704;BME280;51130;52.298;13.686;2022-07-10T03:28:07;77002.94;;;-141.89;63.55
64704;BME280;51130;52.298;13.686;2022-07-10T03:30:33;76998.94;;;-141.89;63.66
64704;BME280;51130;52.298;13.686;2022-07-10T03:32:59;76994.94;;;-141.89;63.51
64704;BME280;51130;52.298;13.686;2022-07-10T03:35:27;76994.94;;;-141.89;63.78
64704;BME280;51130;52.298;13.686;2022-07-10T03:37:53;76994.94;;;-141.89;63.90
64704;BME280;51130;52.298;13.686;2022-07-10T03:40:19;76994.94;;;-141.89;63.56
64704;BME280;51130;52.298;13.686;2022-07-10T03:42:46;76992.94;;;-141.89;63.75
64704;BME280;51130;52.298;13.686;2022-07-10T03:45:13;76990.94;;;-141.89;63.42
64704;BME280;51130;52.298;13.686;2022-07-10T03:47:39;76994.94;;;-141.89;63.65
64704;BME280;51130;52.298;13.686;2022-07-10T03:50:05;76994.94;;;-141.89;63.66
64704;BME280;51130;52.298;13.686;2022-07-10T03:52:32;76986.94;;;-141.89;63.63
64704;BME280;51130;52.298;13.686;2022-07-10T03:54:58;76990.94;;;-141.89;63.58
64704;BME280;51130;52.298;13.686;2022-07-10T03:57:25;76986.94;;;-141.89;63.41
64704;BME280;51130;52.298;13.686;2022-07-10T04:00:10;76986.94;;;-141.89;63.50
64704;BME280;51130;52.298;13.686;2022-07-10T04:02:38;76990.94;;;-141.89;63.51
64704;BME280;51130;52.298;13.686;2022-07-10T04:05:05;76988.94;;;-141.89;63.63
64704;BME280;51130;52.298;13.686;2022-07-10T04:07:32;76992.94;;;-141.89;63.51
64704;BME280;51130;52.298;13.686;2022-07-10T04:09:59;76986.94;;;-141.89;63.38
64704;BME280;51130;52.298;13.686;2022-07-10T04:12:27;76990.94;;;-141.89;63.51
64704;BME280;51130;52.298;13.686;2022-07-10T04:14:54;76986.94;;;-141.89;63.48
64704;BME280;51130;52.298;13.686;2022-07-10T04:17:21;76988.94;;;-141.89;63.46
64704;BME280;51130;52.298;13.686;2022-07-10T04:19:47;76982.94;;;-141.89;63.38
64704;BME280;51130;52.298;13.686;2022-07-10T04:22:13;76986.94;;;-141.89;63.65
64704;BME280;51130;52.298;13.686;2022-07-10T04:24:40;76990.94;;;-141.89;63.70
64704;BME280;51130;52.298;13.686;2022-07-10T04:27:06;76988.94;;;-141.89;63.48
64704;BME280;51130;52.298;13.686;2022-07-10T04:29:33;76990.94;;;-141.89;63.60
64704;BME280;51130;52.298;13.686;2022-07-10T04:31:59;76986.94;;;-141.89;63.45
64704;BME280;51130;52.298;13.686;2022-07-10T04:34:26;76982.94;;;-141.89;63.42
64704;BME280;51130;52.298;13.686;2022-07-10T04:36:52;76990.94;;;-141.89;63.58
64704;BME280;51130;52.298;13.686;2022-07-10T04:39:19;76984.94;;;-141.89;63.41
64704;BME280;51130;52.298;13.686;2022-07-10T04:41:45;76986.94;;;-141.89;63.27
64704;BME280;51130;52.298;13.686;2022-07-10T04:44:12;76990.94;;;-141.89;63.47
64704;BME280;51130;52.298;13.686;2022-07-10T04:46:38;76986.94;;;-141.89;63.42
64704;BME280;51130;52.298;13.686;2022-07-10T04:49:04;76990.94;;;-141.89;63.35
64704;BME280;51130;52.298;13.686;2022-07-10T04:51:31;76988.94;;;-141.89;63.29
64704;BME280;51130;52.298;13.686;2022-07-10T04:53:57;76990.94;;;-141.89;63.33
64704;BME280;51130;52.298;13.686;2022-07-10T04:56:24;76984.94;;;-141.89;63.44
64704;BME280;51130;52.298;13.686;2022-07-10T04:58:50;76984.94;;;-141.89;63.46
64704;BME280;51130;52.298;13.686;2022-07-10T05:01:18;76978.94;;;-141.89;63.46
64704;BME280;51130;52.298;13.686;2022-07-10T05:03:45;76978.94;;;-141.89;63.49
64704;BME280;51130;52.298;13.686;2022-07-10T05:06:11;76978.94;;;-141.89;63.47
64704;BME280;51130;52.298;13.686;2022-07-10T05:08:37;76978.94;;;-141.89;63.44
64704;BME280;51130;52.298;13.686;2022-07-10T05:11:05;76982.94;;;-141.89;63.46
64704;BME280;51130;52.298;13.686;2022-07-10T05:13:31;76982.94;;;-141.89;63.29
64704;BME280;51130;52.298;13.686;2022-07-10T05:15:58;76982.94;;;-141.89;63.38
64704;BME280;51130;52.298;13.686;2022-07-10T05:18:24;76982.94;;;-141.89;63.22
64704;BME280;51130;52.298;13.686;2022-07-10T05:20:51;76982.94;;;-141.89;63.37
64704;BME280;51130;52.298;13.686;2022-07-10T05:23:17;76986.94;;;-141.89;63.05
64704;BME280;51130;52.298;13.686;2022-07-10T05:25:43;76986.94;;;-141.89;63.27
64704;BME280;51130;52.298;13.686;2022-07-10T05:28:10;76990.94;;;-141.89;63.35
64704;BME280;51130;52.298;13.686;2022-07-10T05:30:39;76990.94;;;-141.89;63.22
64704;BME280;51130;52.298;13.686;2022-07-10T05:33:05;76990.94;;;-141.89;63.35
64704;BME280;51130;52.298;13.686;2022-07-10T05:35:32;76998.94;;;-141.89;63.29
64704;BME280;51130;52.298;13.686;2022-07-10T05:37:58;76988.94;;;-141.89;63.32
64704;BME280;51130;52.298;13.686;2022-07-10T05:40:25;76990.94;;;-141.89;63.32
64704;BME280;51130;52.298;13.686;2022-07-10T05:42:51;76990.94;;;-141.89;63.30
64704;BME280;51130;52.298;13.686;2022-07-10T05:45:18;76988.94;;;-141.89;63.22
64704;BME280;51130;52.298;13.686;2022-07-10T05:47:44;76986.94;;;-141.89;63.26
64704;BME280;51130;52.298;13.686;2022-07-10T05:50:11;76986.94;;;-141.89;63.35
64704;BME280;51130;52.298;13.686;2022-07-10T05:52:37;76986.94;;;-141.89;63.25
64704;BME280;51130;52.298;13.686;2022-07-10T05:55:04;76986.94;;;-141.89;63.20
64704;BME280;51130;52.298;13.686;2022-07-10T05:57:31;76982.94;;;-141.89;63.35
64704;BME280;51130;52.298;13.686;2022-07-10T05:59:57;76984.94;;;-141.89;63.21
64704;BME280;51130;52.298;13.686;2022-07-10T06:02:24;76990.94;;;-141.89;63.30
64704;BME280;51130;52.298;13.686;2022-07-10T06:04:50;76986.94;;;-141.89;63.25
64704;BME280;51130;52.298;13.686;2022-07-10T06:07:17;76994.94;;;-141.89;63.04
64704;BME280;51130;52.298;13.686;2022-07-10T06:09:44;76990.94;;;-141.89;63.22
64704;BME280;51130;52.298;13.686;2022-07-10T06:12:10;76990.94;;;-141.89;63.14
64704;BME280;51130;52.298;13.686;2022-07-10T06:14:37;76990.94;;;-141.89;63.12
64704;BME280;51130;52.298;13.686;2022-07-10T06:17:03;76992.94;;;-141.89;63.23
64704;BME280;51130;52.298;13.686;2022-07-10T06:19:30;76994.94;;;-141.89;63.09
64704;BME280;51130;52.298;13.686;2022-07-10T06:21:56;76990.94;;;-141.89;63.04
64704;BME280;51130;52.298;13.686;2022-07-10T06:24:41;76990.94;;;-141.89;63.32
64704;BME280;51130;52.298;13.686;2022-07-10T06:27:08;76982.94;;;-141.89;63.14
64704;BME280;51130;52.298;13.686;2022-07-10T06:29:34;76982.94;;;-141.89;63.50
64704;BME280;51130;52.298;13.686;2022-07-10T06:32:01;76970.91;;;-141.89;63.12
64704;BME280;51130;52.298;13.686;2022-07-10T06:34:27;76962.91;;;-141.89;62.63
64704;BME280;51130;52.298;13.686;2022-07-10T06:36:54;76954.91;;;-141.89;62.47
64704;BME280;51130;52.298;13.686;2022-07-10T06:39:20;76952.91;;;-141.89;62.17
64704;BME280;51130;52.298;13.686;2022-07-10T06:41:47;76946.91;;;-141.89;61.68
64704;BME280;51130;52.298;13.686;2022-07-10T06:44:13;76940.91;;;-141.89;61.71
64704;BME280;51130;52.298;13.686;2022-07-10T06:46:40;76944.91;;;-141.89;61.58
64704;BME280;51130;52.298;13.686;2022-07-10T06:49:07;76938.91;;;-141.89;61.46
64704;BME280;51130;52.298;13.686;2022-07-10T06:51:35;76946.91;;;-141.89;61.54
64704;BME280;51130;52.298;13.686;2022-07-10T06:54:02;76946.91;;;-141.89;61.65
64704;BME280;51130;52.298;13.686;2022-07-10T06:56:28;76944.91;;;-141.89;61.66
64704;BME280;51130;52.298;13.686;2022-07-10T06:58:54;76942.91;;;-141.89;61.75
64704;BME280;51130;52.298;13.686;2022-07-10T07:01:21;76946.91;;;-141.89;61.68
64704;BME280;51130;52.298;13.686;2022-07-10T07:03:48;76946.91;;;-141.89;62.01
64704;BME280;51130;52.298;13.686;2022-07-10T07:06:14;76952.91;;;-141.89;61.88
64704;BME280;51130;52.298;13.686;2022-07-10T07:08:41;76954.91;;;-141.89;61.79
64704;BME280;51130;52.298;13.686;2022-07-10T07:11:09;76962.91;;;-141.89;62.07
64704;BME280;51130;52.298;13.686;2022-07-10T07:13:35;76962.91;;;-141.89;62.08
64704;BME280;51130;52.298;13.686;2022-07-10T07:16:02;76966.91;;;-141.89;61.95
64704;BME280;51130;52.298;13.686;2022-07-10T07:18:32;76968.91;;;-141.89;62.11
64704;BME280;51130;52.298;13.686;2022-07-10T07:21:02;76962.91;;;-141.89;62.18
64704;BME280;51130;52.298;13.686;2022-07-10T07:23:47;76968.91;;;-141.89;62.21
64704;BME280;51130;52.298;13.686;2022-07-10T07:26:14;76966.91;;;-141.89;62.40
64704;BME280;51130;52.298;13.686;2022-07-10T07:28:40;76966.91;;;-141.89;62.35
64704;BME280;51130;52.298;13.686;2022-07-10T07:31:07;76976.94;;;-141.89;62.37
64704;BME280;51130;52.298;13.686;2022-07-10T07:33:40;76972.94;;;-141.89;62.53
64704;BME280;51130;52.298;13.686;2022-07-10T07:36:06;76972.94;;;-141.89;62.53
64704;BME280;51130;52.298;13.686;2022-07-10T07:38:33;76980.94;;;-141.89;62.62
64704;BME280;51130;52.298;13.686;2022-07-10T07:40:59;76970.91;;;-141.89;62.50
64704;BME280;51130;52.298;13.686;2022-07-10T07:43:27;76976.94;;;-141.89;62.45
64704;BME280;51130;52.298;13.686;2022-07-10T07:45:53;76978.94;;;-141.89;62.87
64704;BME280;51130;52.298;13.686;2022-07-10T07:48:20;76966.91;;;-141.89;62.62
64704;BME280;51130;52.298;13.686;2022-07-10T07:50:46;76970.91;;;-141.89;62.54
64704;BME280;51130;52.298;13.686;2022-07-10T07:53:13;76962.91;;;-141.89;62.61
64704;BME280;51130;52.298;13.686;2022-07-10T07:55:39;76960.91;;;-141.89;62.38
64704;BME280;51130;52.298;13.686;2022-07-10T07:58:06;76960.91;;;-141.89;62.48
64704;BME280;51130;52.298;13.686;2022-07-10T08:00:33;76968.91;;;-141.89;62.51
64704;BME280;51130;52.298;13.686;2022-07-10T08:02:59;76958.91;;;-141.89;62.34
64704;BME280;51130;52.298;13.686;2022-07-10T08:05:27;76958.91;;;-141.89;62.29
64704;BME280;51130;52.298;13.686;2022-07-10T08:07:54;76962.91;;;-141.89;62.31
64704;BME280;51130;52.298;13.686;2022-07-10T08:10:22;76952.91;;;-141.89;62.42
64704;BME280;51130;52.298;13.686;2022-07-10T08:12:48;76958.91;;;-141.89;62.50
64704;BME280;51130;52.298;13.686;2022-07-10T08:15:16;76950.91;;;-141.89;62.55
64704;BME280;51130;52.298;13.686;2022-07-10T08:17:43;76962.91;;;-141.89;62.53
64704;BME280;51130;52.298;13.686;2022-07-10T08:20:11;76958.91;;;-141.89;62.58
64704;BME280;51130;52.298;13.686;2022-07-10T08:22:37;76958.91;;;-141.89;62.56
64704;BME280;51130;52.298;13.686;2022-07-10T08:25:04;76958.91;;;-141.89;62.37
64704;BME280;51130;52.298;13.686;2022-07-10T08:27:31;76952.91;;;-141.89;62.45
64704;BME280;51130;52.298;13.686;2022-07-10T08:29:57;76950.91;;;-141.89;62.29
64704;BME280;51130;52.298;13.686;2022-07-10T08:32:24;76952.91;;;-141.89;62.31
64704;BME280;51130;52.298;13.686;2022-07-10T08:34:50;76948.91;;;-141.89;62.39
64704;BME280;51130;52.298;13.686;2022-07-10T08:37:17;76952.91;;;-141.89;62.59
64704;BME280;51130;52.298;13.686;2022-07-10T08:39:43;76960.91;;;-141.89;62.69
64704;BME280;51130;52.298;13.686;2022-07-10T08:42:10;76960.91;;;-141.89;62.69
64704;BME280;51130;52.298;13.686;2022-07-10T08:44:36;76958.91;;;-141.89;62.58
64704;BME280;51130;52.298;13.686;2022-07-10T08:47:03;76966.91;;;-141.89;62.73
64704;BME280;51130;52.298;13.686;2022-07-10T08:49:30;76966.91;;;-141.89;62.58
64704;BME280;51130;52.298;13.686;2022-07-10T08:52:04;76958.91;;;-141.89;62.49
64704;BME280;51130;52.298;13.686;2022-07-10T08:54:31;76962.91;;;-141.89;62.18
64704;BME280;51130;52.298;13.686;2022-07-10T08:57:01;76962.91;;;-141.89;62.44
64704;BME280;51130;52.298;13.686;2022-07-10T08:59:29;76962.91;;;-141.89;62.32
64704;BME280;51130;52.298;13.686;2022-07-10T09:01:57;76970.91;;;-141.89;62.43
64704;BME280;51130;52.298;13.686;2022-07-10T09:04:24;76966.91;;;-141.89;62.21
64704;BME280;51130;52.298;13.686;2022-07-10T09:06:52;76966.91;;;-141.89;62.40
64704;BME280;51130;52.298;13.686;2022-07-10T09:09:19;76970.91;;;-141.89;61.86
64704;BME280;51130;52.298;13.686;2022-07-10T09:11:46;76970.91;;;-141.89;62.08
64704;BME280;51130;52.298;13.686;2022-07-10T09:14:16;76970.91;;;-141.89;62.30
64704;BME280;51130;52.298;13.686;2022-07-10T09:16:59;76970.91;;;-141.89;62.35
64704;BME280;51130;52.298;13.686;2022-07-10T09:19:26;76976.94;;;-141.89;62.18
64704;BME280;51130;52.298;13.686;2022-07-10T09:24:39;76982.94;;;-141.89;62.35
64704;BME280;51130;52.298;13.686;2022-07-10T09:27:05;76982.94;;;-141.89;62.53
64704;BME280;51130;52.298;13.686;2022-07-10T09:29:33;76986.94;;;-141.89;62.63
64704;BME280;51130;52.298;13.686;2022-07-10T09:32:09;76986.94;;;-141.89;62.73
64704;BME280;51130;52.298;13.686;2022-07-10T09:34:40;76982.94;;;-141.89;62.79
64704;BME280;51130;52.298;13.686;2022-07-10T09:39:54;76982.94;;;-141.89;62.46
64704;BME280;51130;52.298;13.686;2022-07-10T09:42:28;76970.91;;;-141.89;62.37
64704;BME280;51130;52.298;13.686;2022-07-10T09:45:37;76960.91;;;-141.89;61.72
64704;BME280;51130;52.298;13.686;2022-07-10T09:47:45;76938.91;;;-141.89;61.09
64704;BME280;51130;52.298;13.686;2022-07-10T09:50:26;76936.91;;;-141.89;60.71
64704;BME280;51130;52.298;13.686;2022-07-10T09:52:54;76930.88;;;-141.89;60.55
64704;BME280;51130;52.298;13.686;2022-07-10T09:55:21;76930.88;;;-141.89;60.20
64704;BME280;51130;52.298;13.686;2022-07-10T09:58:09;76922.88;;;-141.89;59.99
64704;BME280;51130;52.298;13.686;2022-07-10T10:00:38;76928.88;;;-141.89;59.91
64704;BME280;51130;52.298;13.686;2022-07-10T10:03:06;76926.88;;;-141.89;60.04
64704;BME280;51130;52.298;13.686;2022-07-10T10:05:34;76922.88;;;-141.89;59.96
64704;BME280;51130;52.298;13.686;2022-07-10T10:08:11;76930.88;;;-141.89;59.74
64704;BME280;51130;52.298;13.686;2022-07-10T10:10:40;76926.88;;;-141.89;59.88
64704;BME280;51130;52.298;13.686;2022-07-10T10:13:10;76924.88;;;-141.89;59.94
64704;BME280;51130;52.298;13.686;2022-07-10T10:15:37;76930.88;;;-141.89;60.21
64704;BME280;51130;52.298;13.686;2022-07-10T10:18:04;76930.88;;;-141.89;60.16
64704;BME280;51130;52.298;13.686;2022-07-10T10:20:32;76932.88;;;-141.89;60.20
64704;BME280;51130;52.298;13.686;2022-07-10T10:23:09;76940.91;;;-141.89;60.64
64704;BME280;51130;52.298;13.686;2022-07-10T10:25:35;76938.91;;;-141.89;60.69
64704;BME280;51130;52.298;13.686;2022-07-10T10:28:03;76944.91;;;-141.89;60.60
64704;BME280;51130;52.298;13.686;2022-07-10T10:30:30;76946.91;;;-141.89;60.63
64704;BME280;51130;52.298;13.686;2022-07-10T10:32:57;76938.91;;;-141.89;60.80
64704;BME280;51130;52.298;13.686;2022-07-10T10:35:43;76940.91;;;-141.89;60.79
64704;BME280;51130;52.298;13.686;2022-07-10T10:38:14;76946.91;;;-141.89;60.79
64704;BME280;51130;52.298;13.686;2022-07-10T10:40:41;76954.91;;;-141.89;61.11
64704;BME280;51130;52.298;13.686;2022-07-10T10:45:47;76960.91;;;-141.89;61.37
64704;BME280;51130;52.298;13.686;2022-07-10T10:48:14;76966.91;;;-141.89;61.16
64704;BME280;51130;52.298;13.686;2022-07-10T10:51:01;76962.91;;;-141.89;61.32
64704;BME280;51130;52.298;13.686;2022-07-10T10:53:28;76966.91;;;-141.89;61.56
64704;BME280;51130;52.298;13.686;2022-07-10T10:58:26;76968.91;;;-141.89;61.45
64704;BME280;51130;52.298;13.686;2022-07-10T11:01:02;76970.91;;;-141.89;61.52
64704;BME280;51130;52.298;13.686;2022-07-10T11:03:29;76972.94;;;-141.89;61.45
64704;BME280;51130;52.298;13.686;2022-07-10T11:05:55;76974.94;;;-141.89;61.74
64704;BME280;51130;52.298;13.686;2022-07-10T11:08:34;76966.91;;;-141.89;61.81
64704;BME280;51130;52.298;13.686;2022-07-10T11:11:02;76962.91;;;-141.89;61.86
64704;BME280;51130;52.298;13.686;2022-07-10T11:13:48;76964.91;;;-141.89;61.88
64704;BME280;51130;52.298;13.686;2022-07-10T11:16:15;76962.91;;;-141.89;61.82
64704;BME280;51130;52.298;13.686;2022-07-10T11:18:42;76964.91;;;-141.89;61.82
64704;BME280;51130;52.298;13.686;2022-07-10T11:21:11;76968.91;;;-141.89;61.86
64704;BME280;51130;52.298;13.686;2022-07-10T11:29:26;76970.91;;;-141.89;61.53
64704;BME280;51130;52.298;13.686;2022-07-10T11:31:53;76974.94;;;-141.89;61.68
64704;BME280;51130;52.298;13.686;2022-07-10T11:34:25;76976.94;;;-141.89;61.67
64704;BME280;51130;52.298;13.686;2022-07-10T11:37:00;76978.94;;;-141.89;61.69
64704;BME280;51130;52.298;13.686;2022-07-10T11:39:26;76978.94;;;-141.89;61.58
64704;BME280;51130;52.298;13.686;2022-07-10T11:41:52;76978.94;;;-141.89;61.73
64704;BME280;51130;52.298;13.686;2022-07-10T11:44:19;76980.94;;;-141.89;61.71
64704;BME280;51130;52.298;13.686;2022-07-10T11:46:47;76986.94;;;-141.89;61.91
64704;BME280;51130;52.298;13.686;2022-07-10T11:49:16;76980.94;;;-141.89;61.51
64704;BME280;51130;52.298;13.686;2022-07-10T11:51:43;76986.94;;;-141.89;61.93
64704;BME280;51130;52.298;13.686;2022-07-10T11:54:12;76982.94;;;-141.89;61.73
64704;BME280;51130;52.298;13.686;2022-07-10T11:56:40;76982.94;;;-141.89;61.82
64704;BME280;51130;52.298;13.686;2022-07-10T11:59:10;76984.94;;;-141.89;61.71
64704;BME280;51130;52.298;13.686;2022-07-10T12:01:41;76976.94;;;-141.89;61.83
64704;BME280;51130;52.298;13.686;2022-07-10T12:04:08;76982.94;;;-141.89;62.01
64704;BME280;51130;52.298;13.686;2022-07-10T12:06:36;76980.94;;;-141.89;62.02
64704;BME280;51130;52.298;13.686;2022-07-10T12:09:05;76982.94;;;-141.89;62.11
64704;BME280;51130;52.298;13.686;2022-07-10T12:11:32;76974.94;;;-141.89;61.99
64704;BME280;51130;52.298;13.686;2022-07-10T12:16:55;76970.91;;;-141.89;61.83
64704;BME280;51130;52.298;13.686;2022-07-10T12:19:26;76972.94;;;-141.89;61.73
64704;BME280;51130;52.298;13.686;2022-07-10T12:21:54;76970.91;;;-141.89;61.87
64704;BME280;51130;52.298;13.686;2022-07-10T12:24:23;76974.94;;;-141.89;61.65
64704;BME280;51130;52.298;13.686;2022-07-10T12:26:50;76972.94;;;-141.89;61.63
64704;BME280;51130;52.298;13.686;2022-07-10T12:31:46;76978.94;;;-141.89;61.42
64704;BME280;51130;52.298;13.686;2022-07-10T12:34:12;76982.94;;;-141.89;61.58
64704;BME280;51130;52.298;13.686;2022-07-10T12:39:09;76982.94;;;-141.89;61.21
64704;BME280;51130;52.298;13.686;2022-07-10T12:47:01;76984.94;;;-141.89;61.33
64704;BME280;51130;52.298;13.686;2022-07-10T12:49:28;76984.94;;;-141.89;61.35
64704;BME280;51130;52.298;13.686;2022-07-10T12:51:55;76972.94;;;-141.89;61.58
64704;BME280;51130;52.298;13.686;2022-07-10T12:54:37;76972.94;;;-141.89;61.49
64704;BME280;51130;52.298;13.686;2022-07-10T12:57:04;76970.91;;;-141.89;61.81
64704;BME280;51130;52.298;13.686;2022-07-10T12:59:34;76982.94;;;-141.89;61.76
64704;BME280;51130;52.298;13.686;2022-07-10T13:02:14;76970.91;;;-141.89;61.69
64704;BME280;51130;52.298;13.686;2022-07-10T13:04:51;76982.94;;;-141.89;61.82